Time;durP1;ratioP1;P1;durP2;ratioP2;P2;SDS_P1;SDS_P2;PMS_P1;PMS_P2;Temp;Humidity;BMP_temperature;BMP_pressure;BME280_temperature;BME280_humidity;BME280_pressure;Samples;Min_cycle;Max_cycle;Signal;HPM_P1;HPM_P2
2021/10/17 00:00:18;;;;;;;7.85;4.57;;;5.10;90.80;;;;;;4982714;28;20026;-73
2021/10/17 00:02:47;;;;;;;6.63;4.15;;;5.10;90.80;;;;;;4966856;28;20061;-72
2021/10/17 00:05:17;;;;;;;7.50;4.20;;;5.10;90.40;;;;;;4965669;28;20026;-72
2021/10/17 00:07:43;;;;;;;6.38;4.15;;;5.00;90.40;;;;;;4966727;28;20053;-72
2021/10/17 00:10:11;;;;;;;7.70;4.13;;;5.00;90.40;;;;;;4982155;28;20023;-73
2021/10/17 00:12:38;;;;;;;9.20;4.65;;;4.90;90.70;;;;;;4982348;28;20092;-73
2021/10/17 00:15:05;;;;;;;8.18;5.03;;;4.90;90.70;;;;;;4950221;28;20022;-72
2021/10/17 00:17:30;;;;;;;6.43;3.90;;;4.90;90.60;;;;;;4966432;28;20034;-72
2021/10/17 00:19:56;;;;;;;11.38;5.05;;;4.90;90.40;;;;;;4983475;28;20454;-73
2021/10/17 00:22:22;;;;;;;8.80;5.72;;;4.90;90.40;;;;;;4982346;28;20055;-72
2021/10/17 00:24:48;;;;;;;10.88;5.28;;;4.90;90.50;;;;;;4982890;28;20081;-72
2021/10/17 00:27:13;;;;;;;9.40;5.38;;;4.90;90.30;;;;;;4982414;28;20050;-72
2021/10/17 00:29:39;;;;;;;9.02;5.35;;;4.80;90.30;;;;;;4982236;28;20027;-72
2021/10/17 00:32:08;;;;;;;9.57;5.05;;;4.90;90.40;;;;;;4982259;28;20085;-72
2021/10/17 00:34:35;;;;;;;8.80;5.45;;;4.80;90.60;;;;;;4981722;28;20022;-72
2021/10/17 00:37:00;;;;;;;10.20;5.18;;;4.80;90.30;;;;;;4966140;28;20023;-72
2021/10/17 00:39:26;;;;;;;10.30;5.10;;;4.70;90.00;;;;;;4982176;28;20062;-72
2021/10/17 00:41:52;;;;;;;9.07;5.32;;;4.60;90.30;;;;;;4965878;28;20038;-73
2021/10/17 00:44:23;;;;;;;10.15;5.22;;;4.60;90.40;;;;;;4981782;28;20221;-72
2021/10/17 00:46:49;;;;;;;9.13;4.72;;;4.60;90.60;;;;;;4982054;28;20022;-72
2021/10/17 00:49:15;;;;;;;7.75;4.50;;;4.50;90.70;;;;;;4982045;28;20054;-72
2021/10/17 00:51:42;;;;;;;7.57;4.57;;;4.50;90.80;;;;;;4982041;28;20057;-72
2021/10/17 00:54:12;;;;;;;7.88;4.47;;;4.50;90.70;;;;;;4981554;28;20022;-72
2021/10/17 00:56:39;;;;;;;12.63;4.65;;;4.40;90.80;;;;;;4966036;28;20093;-72
2021/10/17 00:59:05;;;;;;;;;;;4.30;90.90;;;;;;4966463;28;20029;-72
2021/10/17 01:01:31;;;;;;;6.03;3.95;;;4.30;90.90;;;;;;4981954;28;19972;-72
2021/10/17 01:03:57;;;;;;;7.97;4.85;;;4.40;90.80;;;;;;4981518;28;20120;-72
2021/10/17 01:06:23;;;;;;;8.43;4.55;;;4.40;90.70;;;;;;4982924;28;20037;-72
2021/10/17 01:08:49;;;;;;;7.85;4.63;;;4.40;90.80;;;;;;4981893;28;20030;-72
2021/10/17 01:11:15;;;;;;;5.47;4.10;;;4.50;90.70;;;;;;4981664;28;20046;-72
2021/10/17 01:13:41;;;;;;;9.10;5.20;;;4.40;90.70;;;;;;4965562;28;20026;-72
2021/10/17 01:16:07;;;;;;;7.28;4.25;;;4.40;90.70;;;;;;4981723;28;20030;-72
2021/10/17 01:18:33;;;;;;;10.63;4.75;;;4.50;90.60;;;;;;4985146;28;20072;-72
2021/10/17 01:20:58;;;;;;;8.02;4.88;;;4.40;90.50;;;;;;4985427;28;20061;-72
2021/10/17 01:23:24;;;;;;;6.35;4.40;;;4.40;90.50;;;;;;4985077;28;20046;-72
2021/10/17 01:25:51;;;;;;;6.22;3.70;;;4.50;90.40;;;;;;4984994;28;20065;-72
2021/10/17 01:28:16;;;;;;;9.52;5.13;;;4.40;90.40;;;;;;5001523;28;20401;-72
2021/10/17 01:30:42;;;;;;;7.93;3.80;;;4.30;90.70;;;;;;5001399;28;20045;-72
2021/10/17 01:33:08;;;;;;;9.50;4.47;;;4.30;90.70;;;;;;4984970;28;20037;-72
2021/10/17 01:35:34;;;;;;;9.10;4.18;;;4.30;90.50;;;;;;4985032;28;20094;-72
2021/10/17 01:38:00;;;;;;;7.60;4.28;;;4.30;90.40;;;;;;5001217;28;20333;-72
2021/10/17 01:40:26;;;;;;;8.75;4.25;;;4.30;90.40;;;;;;5001015;28;20058;-72
2021/10/17 01:42:51;;;;;;;7.35;4.18;;;4.30;90.30;;;;;;4984846;28;20022;-72
2021/10/17 01:45:17;;;;;;;8.68;4.35;;;4.30;90.20;;;;;;4985832;28;20326;-72
2021/10/17 01:47:51;;;;;;;12.82;4.50;;;4.30;90.00;;;;;;4986011;28;20099;-72
2021/10/17 01:50:18;;;;;;;7.50;4.28;;;4.20;90.00;;;;;;5000990;28;20359;-72
2021/10/17 01:52:44;;;;;;;6.70;4.18;;;4.20;90.10;;;;;;5000903;28;20031;-72
2021/10/17 01:55:10;;;;;;;8.18;4.32;;;4.10;90.10;;;;;;5000433;28;20046;-72
2021/10/17 01:57:36;;;;;;;7.15;3.97;;;4.10;90.20;;;;;;5000881;28;20066;-72
2021/10/17 02:00:04;;;;;;;6.53;4.07;;;4.10;90.30;;;;;;4984601;28;20309;-72
2021/10/17 02:02:30;;;;;;;4.60;3.88;;;4.00;90.30;;;;;;5000778;28;20022;-72
2021/10/17 02:04:56;;;;;;;6.35;3.92;;;4.00;90.30;;;;;;5000550;28;20321;-72
2021/10/17 02:07:22;;;;;;;7.00;3.63;;;3.90;90.40;;;;;;5000925;28;20019;-72
2021/10/17 02:09:47;;;;;;;9.27;4.32;;;3.90;90.20;;;;;;4985720;28;20106;-73
2021/10/17 02:12:15;;;;;;;10.30;4.15;;;3.90;90.10;;;;;;5000557;28;20027;-72
2021/10/17 02:14:41;;;;;;;8.13;4.05;;;3.90;90.10;;;;;;5000097;28;20262;-73
2021/10/17 02:17:07;;;;;;;8.13;4.40;;;3.80;90.20;;;;;;5000583;28;20031;-73
2021/10/17 02:19:33;;;;;;;7.82;3.85;;;3.90;90.00;;;;;;4984309;28;20114;-73
2021/10/17 02:21:59;;;;;;;6.45;3.85;;;3.80;90.00;;;;;;5000454;28;20034;-72
2021/10/17 02:24:25;;;;;;;5.95;4.00;;;3.70;90.30;;;;;;4967791;28;20019;-72
2021/10/17 02:26:51;;;;;;;5.93;3.78;;;3.80;90.30;;;;;;4983988;28;20134;-72
2021/10/17 02:29:16;;;;;;;5.45;4.10;;;3.60;90.20;;;;;;4983866;28;20101;-72
2021/10/17 02:31:42;;;;;;;5.20;3.53;;;3.60;90.40;;;;;;4984210;28;20042;-73
2021/10/17 02:34:08;;;;;;;10.02;3.90;;;3.70;90.40;;;;;;4983731;28;20325;-73
2021/10/17 02:36:34;;;;;;;7.78;3.90;;;3.70;90.30;;;;;;4984123;28;20073;-72
2021/10/17 02:38:59;;;;;;;7.00;3.70;;;3.60;90.50;;;;;;4984015;28;20038;-72
2021/10/17 02:41:25;;;;;;;7.47;3.47;;;3.60;90.60;;;;;;4983755;28;20038;-72
2021/10/17 02:43:51;;;;;;;6.15;3.65;;;3.50;90.70;;;;;;4983636;28;20034;-72
2021/10/17 02:46:17;;;;;;;6.47;3.65;;;3.50;90.80;;;;;;4983801;28;20030;-72
2021/10/17 02:48:42;;;;;;;6.30;3.53;;;3.50;90.60;;;;;;4983845;28;20029;-72
2021/10/17 02:51:08;;;;;;;6.78;3.42;;;3.60;90.60;;;;;;4983786;28;20221;-72
2021/10/17 02:53:34;;;;;;;5.05;3.92;;;3.50;90.50;;;;;;4967477;28;20034;-72
2021/10/17 02:56:00;;;;;;;7.20;4.35;;;3.50;90.60;;;;;;4983342;28;20098;-72
2021/10/17 02:58:26;;;;;;;8.50;4.00;;;3.50;90.80;;;;;;4999794;28;20042;-72
2021/10/17 03:00:52;;;;;;;7.40;4.00;;;3.30;90.80;;;;;;4983570;28;20023;-72
2021/10/17 03:03:18;;;;;;;5.75;3.90;;;3.30;90.90;;;;;;4999448;28;20467;-72
2021/10/17 03:05:44;;;;;;;6.07;3.70;;;3.30;91.10;;;;;;4999690;28;20093;-72
2021/10/17 03:08:09;;;;;;;6.68;4.03;;;3.30;91.30;;;;;;4999715;28;20041;-72
2021/10/17 03:10:35;;;;;;;6.82;3.97;;;3.30;91.30;;;;;;4983196;28;20094;-72
2021/10/17 03:13:01;;;;;;;7.10;4.05;;;3.30;91.40;;;;;;4983086;28;20267;-73
2021/10/17 03:15:27;;;;;;;4.88;3.65;;;3.20;91.50;;;;;;4983320;28;20031;-72
2021/10/17 03:17:54;;;;;;;8.15;4.45;;;3.30;91.40;;;;;;4984302;28;20086;-73
2021/10/17 03:20:23;;;;;;;10.68;4.60;;;3.30;91.40;;;;;;4999172;28;20019;-73
2021/10/17 03:22:49;;;;;;;8.95;4.32;;;3.30;91.40;;;;;;4998958;28;20026;-72
2021/10/17 03:25:15;;;;;;;7.45;4.00;;;3.30;91.60;;;;;;4982468;28;20045;-72
2021/10/17 03:27:41;;;;;;;9.35;3.97;;;3.40;91.50;;;;;;4984221;28;20308;-72
2021/10/17 03:30:10;;;;;;;7.72;4.03;;;3.40;91.70;;;;;;4999447;28;20030;-73
2021/10/17 03:32:36;;;;;;;6.53;3.92;;;3.40;91.70;;;;;;4998763;28;20018;-72
2021/10/17 03:35:03;;;;;;;8.80;4.38;;;3.50;91.80;;;;;;4998995;28;20255;-73
2021/10/17 03:37:33;;;;;;;6.68;4.70;;;3.60;91.70;;;;;;4983115;28;20134;-72
2021/10/17 03:39:59;;;;;;;8.77;4.75;;;3.60;91.60;;;;;;4982532;28;20053;-72
2021/10/17 03:42:25;;;;;;;12.00;4.97;;;3.70;91.40;;;;;;4998978;28;20078;-72
2021/10/17 03:44:51;;;;;;;7.28;4.15;;;3.80;91.20;;;;;;4999164;28;20022;-72
2021/10/17 03:47:17;;;;;;;6.80;3.78;;;3.80;91.00;;;;;;4966810;28;20253;-72
2021/10/17 03:49:43;;;;;;;8.63;4.97;;;3.90;90.80;;;;;;4983071;28;20078;-72
2021/10/17 03:52:09;;;;;;;6.13;3.30;;;3.90;90.80;;;;;;4982855;28;20026;-72
2021/10/17 03:54:35;;;;;;;6.78;3.17;;;3.90;91.00;;;;;;4983411;28;20043;-72
2021/10/17 03:57:01;;;;;;;4.03;2.80;;;3.90;90.70;;;;;;4982440;28;20034;-72
2021/10/17 03:59:26;;;;;;;7.28;2.97;;;3.90;90.50;;;;;;4982686;28;20026;-72
2021/10/17 04:01:52;;;;;;;6.20;3.08;;;3.90;90.50;;;;;;4983690;28;20027;-72
2021/10/17 04:04:18;;;;;;;3.45;2.28;;;3.80;90.50;;;;;;4966214;28;20098;-73
2021/10/17 04:06:44;;;;;;;4.40;3.33;;;3.60;90.60;;;;;;4982483;28;20030;-72
2021/10/17 04:09:10;;;;;;;3.97;2.53;;;3.70;90.50;;;;;;4982388;28;20035;-73
2021/10/17 04:11:35;;;;;;;3.90;2.88;;;3.70;90.30;;;;;;4982184;28;20102;-72
2021/10/17 04:14:01;;;;;;;3.47;2.65;;;3.70;90.20;;;;;;4982129;28;20386;-73
2021/10/17 04:16:27;;;;;;;3.70;2.60;;;3.70;90.30;;;;;;4983435;28;20027;-73
2021/10/17 04:18:53;;;;;;;4.40;2.20;;;3.70;90.20;;;;;;4982332;28;20047;-72
2021/10/17 04:21:19;;;;;;;4.80;2.63;;;3.70;90.10;;;;;;4982378;28;20095;-72
2021/10/17 04:23:45;;;;;;;3.78;2.40;;;3.60;90.10;;;;;;4981961;28;20014;-73
2021/10/17 04:26:10;;;;;;;3.28;2.35;;;3.60;90.10;;;;;;4982918;28;20027;-72
2021/10/17 04:28:36;;;;;;;4.47;2.15;;;3.70;90.30;;;;;;4983334;28;20051;-72
2021/10/17 04:31:02;;;;;;;6.63;2.70;;;3.70;90.30;;;;;;4982187;28;20026;-72
2021/10/17 04:33:28;;;;;;;4.55;2.72;;;3.70;90.10;;;;;;4983014;28;20325;-73
2021/10/17 04:35:54;;;;;;;3.47;2.35;;;3.70;90.10;;;;;;4983291;28;20026;-72
2021/10/17 04:38:19;;;;;;;5.30;2.45;;;3.70;90.30;;;;;;4982015;28;20038;-72
2021/10/17 04:40:45;;;;;;;3.67;2.22;;;3.70;90.10;;;;;;4981919;28;20258;-72
2021/10/17 04:43:12;;;;;;;5.70;2.50;;;3.70;90.10;;;;;;4965794;28;20058;-72
2021/10/17 04:45:38;;;;;;;4.05;2.58;;;3.60;90.40;;;;;;4981973;28;20222;-72
2021/10/17 04:48:05;;;;;;;4.47;3.13;;;3.60;90.50;;;;;;4982058;28;20030;-72
2021/10/17 04:50:31;;;;;;;3.63;1.98;;;3.60;90.50;;;;;;4965972;28;20036;-72
2021/10/17 04:52:57;;;;;;;4.50;2.40;;;3.60;90.30;;;;;;4968778;28;20066;-72
2021/10/17 04:55:23;;;;;;;6.68;2.60;;;3.60;90.30;;;;;;4985246;28;20097;-72
2021/10/17 04:57:48;;;;;;;3.17;2.47;;;3.60;90.50;;;;;;4984686;28;20557;-72
2021/10/17 05:00:15;;;;;;;4.93;2.30;;;3.60;90.50;;;;;;5000861;28;20026;-72
2021/10/17 05:02:41;;;;;;;6.82;3.00;;;3.60;90.60;;;;;;4984702;28;20038;-72
2021/10/17 05:05:07;;;;;;;2.58;2.33;;;3.50;90.70;;;;;;4985521;28;20019;-73
2021/10/17 05:07:33;;;;;;;4.03;2.42;;;3.60;90.80;;;;;;5000779;28;20074;-72
2021/10/17 05:09:59;;;;;;;3.35;2.30;;;3.60;90.70;;;;;;4985819;28;20325;-73
2021/10/17 05:12:25;;;;;;;3.35;2.40;;;3.60;90.70;;;;;;4984322;28;20034;-72
2021/10/17 05:14:51;;;;;;;5.13;2.90;;;3.60;90.70;;;;;;4968128;28;20022;-73
2021/10/17 05:17:17;;;;;;;4.07;2.42;;;3.60;90.80;;;;;;4984377;28;20041;-73
2021/10/17 05:19:42;;;;;;;3.80;2.53;;;3.60;90.80;;;;;;4984558;28;20042;-73
2021/10/17 05:22:08;;;;;;;6.53;2.80;;;3.60;90.80;;;;;;4984344;28;20304;-73
2021/10/17 05:24:34;;;;;;;4.47;2.28;;;3.70;90.80;;;;;;5000092;28;20026;-73
2021/10/17 05:27:00;;;;;;;8.25;3.10;;;3.60;90.90;;;;;;4967978;28;20129;-73
2021/10/17 05:29:26;;;;;;;5.43;2.60;;;3.60;90.80;;;;;;4984361;28;20094;-72
2021/10/17 05:31:52;;;;;;;8.43;3.25;;;3.60;90.90;;;;;;4968255;28;20018;-72
2021/10/17 05:34:17;;;;;;;5.85;2.78;;;3.50;91.00;;;;;;4983883;28;20306;-72
2021/10/17 05:36:43;;;;;;;4.78;3.08;;;3.50;90.90;;;;;;4985254;28;20057;-72
2021/10/17 05:39:10;;;;;;;6.07;2.85;;;3.50;90.90;;;;;;4984082;28;20529;-72
2021/10/17 05:41:36;;;;;;;9.57;2.65;;;3.50;91.00;;;;;;4983962;28;20025;-72
2021/10/17 05:44:02;;;;;;;5.63;2.73;;;3.50;91.00;;;;;;4983598;28;20074;-72
2021/10/17 05:46:28;;;;;;;5.10;2.78;;;3.50;91.10;;;;;;4967590;28;20258;-72
2021/10/17 05:48:54;;;;;;;4.85;2.65;;;3.50;91.10;;;;;;4983864;28;20048;-72
2021/10/17 05:51:20;;;;;;;6.15;2.83;;;3.40;91.20;;;;;;4983735;28;20225;-73
2021/10/17 05:53:46;;;;;;;6.32;3.10;;;3.50;91.10;;;;;;4983615;28;20067;-72
2021/10/17 05:56:11;;;;;;;5.70;3.25;;;3.50;91.10;;;;;;4982226;28;20062;-72
2021/10/17 05:58:37;;;;;;;6.13;2.65;;;3.50;91.20;;;;;;4967215;28;20029;-72
2021/10/17 06:01:03;;;;;;;6.22;3.22;;;3.50;91.20;;;;;;4983642;28;20344;-72
2021/10/17 06:03:29;;;;;;;7.20;2.83;;;3.50;91.20;;;;;;4982745;28;20031;-72
2021/10/17 06:06:00;;;;;;;5.78;3.03;;;3.50;91.30;;;;;;4983378;28;20033;-72
2021/10/17 06:08:26;;;;;;;7.25;3.58;;;3.50;91.30;;;;;;4984340;28;20022;-73
2021/10/17 06:10:53;;;;;;;4.75;3.20;;;3.50;91.20;;;;;;4983395;28;20073;-72
2021/10/17 06:13:18;;;;;;;5.53;3.25;;;3.50;91.30;;;;;;4967269;28;20049;-72
2021/10/17 06:15:44;;;;;;;7.57;3.50;;;3.50;91.50;;;;;;4983385;28;20043;-72
2021/10/17 06:18:10;;;;;;;10.52;3.35;;;3.50;91.60;;;;;;4983276;28;20217;-72
2021/10/17 06:20:36;;;;;;;4.60;3.08;;;3.60;91.60;;;;;;4983282;28;20034;-72
2021/10/17 06:23:02;;;;;;;5.97;2.75;;;3.60;91.50;;;;;;4966918;28;20221;-72
2021/10/17 06:25:27;;;;;;;8.82;3.38;;;3.60;91.50;;;;;;4967035;28;20357;-72
2021/10/17 06:27:53;;;;;;;8.20;3.55;;;3.60;91.40;;;;;;4966699;28;20106;-72
2021/10/17 06:30:19;;;;;;;6.28;3.53;;;3.70;91.40;;;;;;4983106;28;20039;-72
2021/10/17 06:32:45;;;;;;;7.43;3.80;;;3.80;91.60;;;;;;4967117;28;20214;-72
2021/10/17 06:35:13;;;;;;;5.90;2.88;;;3.80;91.60;;;;;;4983974;28;20027;-72
2021/10/17 06:37:42;;;;;;;5.90;2.72;;;3.80;91.70;;;;;;4983975;28;20026;-73
2021/10/17 06:40:08;;;;;;;4.90;3.42;;;3.90;91.60;;;;;;4984260;28;20089;-72
2021/10/17 06:42:34;;;;;;;4.22;2.75;;;3.90;91.40;;;;;;4982626;28;20102;-73
2021/10/17 06:45:00;;;;;;;4.97;2.80;;;3.90;91.40;;;;;;4966450;28;20018;-72
2021/10/17 06:47:26;;;;;;;3.95;2.45;;;4.00;91.40;;;;;;4982688;28;20026;-72
2021/10/17 06:49:52;;;;;;;7.68;2.80;;;4.00;91.40;;;;;;4966574;28;20099;-72
2021/10/17 06:52:17;;;;;;;6.18;3.40;;;4.00;91.40;;;;;;4984006;28;20261;-72
2021/10/17 06:54:43;;;;;;;6.63;3.00;;;4.10;91.40;;;;;;4982160;28;20050;-72
2021/10/17 06:57:09;;;;;;;9.00;4.28;;;4.10;91.50;;;;;;4998300;28;20084;-72
2021/10/17 06:59:35;;;;;;;7.03;3.83;;;4.20;91.60;;;;;;4982355;28;20101;-73
2021/10/17 07:02:00;;;;;;;5.60;2.95;;;4.20;91.50;;;;;;4998496;28;20086;-72
2021/10/17 07:04:26;;;;;;;6.07;2.92;;;4.30;91.50;;;;;;4998317;28;20029;-72
2021/10/17 07:06:52;;;;;;;5.32;2.88;;;4.40;91.70;;;;;;4983836;28;20086;-72
2021/10/17 07:09:18;;;;;;;9.65;4.28;;;4.50;91.90;;;;;;4982635;28;20022;-73
2021/10/17 07:11:44;;;;;;;14.20;6.38;;;4.60;91.70;;;;;;4983611;28;20039;-72
2021/10/17 07:14:10;;;;;;;12.63;6.13;;;4.60;91.70;;;;;;4998300;28;20033;-72
2021/10/17 07:16:36;;;;;;;11.57;5.13;;;4.80;91.60;;;;;;4997715;28;20027;-72
2021/10/17 07:19:02;;;;;;;5.63;2.95;;;4.80;91.50;;;;;;4998680;28;20027;-72
2021/10/17 07:21:28;;;;;;;5.28;3.47;;;4.80;91.40;;;;;;4998458;28;20037;-72
2021/10/17 07:23:53;;;;;;;9.02;3.30;;;4.90;91.10;;;;;;4981868;28;20019;-72
2021/10/17 07:26:19;;;;;;;5.60;2.90;;;4.90;91.10;;;;;;4998228;28;20058;-72
2021/10/17 07:28:45;;;;;;;8.23;3.08;;;5.00;90.90;;;;;;4982288;28;20042;-72
2021/10/17 07:31:11;;;;;;;6.57;3.20;;;5.00;91.00;;;;;;4998239;28;20023;-72
2021/10/17 07:33:37;;;;;;;5.13;3.25;;;4.90;91.20;;;;;;4997817;28;20356;-72
2021/10/17 07:36:04;;;;;;;5.93;2.85;;;5.00;91.30;;;;;;4998084;28;20272;-73
2021/10/17 07:38:30;;;;;;;5.22;3.28;;;5.00;91.30;;;;;;4998109;28;20042;-73
2021/10/17 07:40:56;;;;;;;6.97;4.03;;;5.10;91.20;;;;;;4998007;28;20065;-73
2021/10/17 07:43:23;;;;;;;6.93;3.55;;;5.20;91.10;;;;;;4997722;28;20050;-73
2021/10/17 07:45:49;;;;;;;6.53;4.07;;;5.20;90.70;;;;;;4997829;28;20018;-72
2021/10/17 07:48:15;;;;;;;6.35;3.60;;;5.20;90.80;;;;;;4981933;28;20404;-72
2021/10/17 07:50:40;;;;;;;8.23;3.92;;;5.30;90.80;;;;;;4998112;28;20097;-74
2021/10/17 07:53:06;;;;;;;5.70;3.70;;;5.30;90.90;;;;;;4976615;28;20449;-74
2021/10/17 07:55:32;;;;;;;11.40;4.63;;;5.40;90.80;;;;;;4980057;28;20098;-77
2021/10/17 07:57:58;;;;;;;6.40;4.38;;;5.40;91.00;;;;;;4981610;28;20027;-76
2021/10/17 08:00:28;;;;;;;10.00;4.50;;;5.40;91.10;;;;;;4997946;28;20179;-76
2021/10/17 08:02:54;;;;;;;7.93;4.38;;;5.50;91.10;;;;;;4997728;28;20245;-77
2021/10/17 08:05:20;;;;;;;8.77;4.82;;;5.40;90.80;;;;;;4997855;28;20050;-73
2021/10/17 08:07:46;;;;;;;7.93;4.28;;;5.50;90.80;;;;;;4978908;28;20033;-79
2021/10/17 08:10:12;;;;;;;8.53;3.97;;;5.50;90.90;;;;;;4954907;28;20050;-77
2021/10/17 08:12:38;;;;;;;7.82;4.45;;;5.40;90.90;;;;;;4980313;28;20061;-82
2021/10/17 08:15:05;;;;;;;7.57;4.20;;;5.40;90.90;;;;;;4964857;28;20030;-81
2021/10/17 08:17:31;;;;;;;;;;;5.40;90.90;;;;;;4934118;28;20030;-77
2021/10/17 08:19:56;;;;;;;7.20;4.60;;;5.40;90.80;;;;;;4980504;28;19906;-82
2021/10/17 08:22:23;;;;;;;9.50;5.30;;;5.50;90.90;;;;;;4964831;28;20052;-77
2021/10/17 08:24:49;;;;;;;8.15;4.97;;;5.50;90.80;;;;;;4969078;28;20057;-77
2021/10/17 08:27:15;;;;;;;8.63;4.55;;;5.60;90.80;;;;;;4949466;28;20094;-75
2021/10/17 08:29:41;;;;;;;10.07;4.68;;;5.60;90.70;;;;;;4981415;28;20035;-78
2021/10/17 08:32:07;;;;;;;7.97;4.40;;;5.70;90.50;;;;;;4985166;28;20026;-80
2021/10/17 08:34:32;;;;;;;9.83;4.70;;;5.80;90.40;;;;;;4967629;28;20357;-79
2021/10/17 08:36:58;;;;;;;7.30;4.38;;;5.80;90.10;;;;;;4949132;28;20026;-78
2021/10/17 08:39:24;;;;;;;6.47;4.50;;;5.90;90.00;;;;;;4981624;28;20218;-77
2021/10/17 08:41:50;;;;;;;8.38;5.03;;;5.90;90.00;;;;;;4982083;28;20041;-83
2021/10/17 08:44:17;;;;;;;7.68;4.57;;;5.90;90.20;;;;;;4949931;28;20299;-80
2021/10/17 08:46:44;;;;;;;6.93;4.45;;;5.90;90.30;;;;;;4950798;28;20023;-73
2021/10/17 08:49:09;;;;;;;;;;;5.90;90.30;;;;;;4966651;28;20415;-78
2021/10/17 08:51:35;;;;;;;5.40;3.90;;;6.00;90.20;;;;;;4966587;28;19918;-82
2021/10/17 08:54:01;;;;;;;7.68;4.85;;;6.10;90.10;;;;;;4948323;28;20353;-80
2021/10/17 08:56:27;;;;;;;6.65;4.38;;;6.10;90.30;;;;;;4948179;28;20074;-80
2021/10/17 08:58:53;;;;;;;8.85;4.63;;;6.20;90.20;;;;;;4959356;28;20273;-81
2021/10/17 09:01:19;;;;;;;6.32;3.78;;;6.30;90.00;;;;;;4946692;28;20019;-77
2021/10/17 09:03:56;;;;;;;6.60;3.85;;;6.40;89.80;;;;;;4961629;28;20237;-77
2021/10/17 09:06:26;;;;;;;7.00;4.00;;;6.50;89.60;;;;;;4947442;28;20023;-74
2021/10/17 09:09:19;;;;;;;8.20;4.05;;;6.60;89.10;;;;;;4946505;28;20038;-79
2021/10/17 09:11:51;;;;;;;6.32;3.80;;;6.70;88.70;;;;;;4962694;28;20095;-78
2021/10/17 09:14:27;;;;;;;6.55;3.58;;;6.80;88.60;;;;;;4964713;28;20346;-77
2021/10/17 09:16:54;;;;;;;7.00;3.88;;;7.00;88.50;;;;;;4932952;28;20042;-77
2021/10/17 09:19:31;;;;;;;6.93;3.88;;;7.00;88.50;;;;;;4948711;28;20046;-73
2021/10/17 09:22:08;;;;;;;5.95;3.92;;;7.20;88.80;;;;;;4949789;28;20027;-81
2021/10/17 09:24:46;;;;;;;7.80;4.32;;;7.20;88.20;;;;;;4942554;28;20105;-78
2021/10/17 09:27:19;;;;;;;9.10;4.50;;;7.40;87.50;;;;;;4988180;28;20195;-74
2021/10/17 09:29:48;;;;;;;7.50;4.20;;;7.40;87.30;;;;;;4982120;28;20030;-76
2021/10/17 09:32:34;;;;;;;7.18;4.00;;;7.50;87.00;;;;;;4981316;28;20160;-75
2021/10/17 09:35:06;;;;;;;7.22;4.18;;;7.50;86.80;;;;;;4978965;28;20038;-74
2021/10/17 09:37:41;;;;;;;10.70;4.05;;;7.60;87.30;;;;;;4984153;28;20042;-74
2021/10/17 09:40:21;;;;;;;4.90;3.63;;;7.70;89.10;;;;;;4972005;28;20269;-74
2021/10/17 09:43:09;;;;;;;6.03;4.00;;;7.80;87.20;;;;;;4987942;28;20348;-74
2021/10/17 09:45:36;;;;;;;7.22;4.05;;;7.80;86.60;;;;;;4987222;28;20050;-74
2021/10/17 09:48:02;;;;;;;7.57;3.95;;;7.80;86.30;;;;;;4986901;28;20026;-74
2021/10/17 09:50:28;;;;;;;5.28;3.50;;;7.90;85.30;;;;;;4987216;28;20023;-74
2021/10/17 09:52:57;;;;;;;9.70;3.97;;;7.90;85.70;;;;;;4985656;28;20088;-73
2021/10/17 09:55:24;;;;;;;8.98;4.60;;;8.10;86.50;;;;;;4987098;28;20027;-74
2021/10/17 09:57:51;;;;;;;6.35;3.72;;;8.10;86.20;;;;;;4964084;28;20090;-73
2021/10/17 10:00:17;;;;;;;9.93;4.45;;;8.20;85.70;;;;;;4964150;28;20220;-73
2021/10/17 10:02:45;;;;;;;6.97;3.85;;;8.20;85.90;;;;;;4980397;28;20334;-73
2021/10/17 10:05:11;;;;;;;6.82;4.55;;;8.30;85.50;;;;;;4979498;28;20035;-74
2021/10/17 10:07:36;;;;;;;8.48;3.85;;;8.30;84.60;;;;;;4980263;28;20035;-75
2021/10/17 10:10:03;;;;;;;6.72;3.67;;;8.30;84.30;;;;;;4964082;28;20330;-75
2021/10/17 10:12:29;;;;;;;8.30;3.97;;;8.40;84.70;;;;;;4979830;28;20019;-74
2021/10/17 10:14:56;;;;;;;5.27;3.27;;;8.50;85.40;;;;;;4963316;28;20293;-73
2021/10/17 10:17:22;;;;;;;;;;;8.50;85.00;;;;;;4980224;28;20023;-73
2021/10/17 10:19:48;;;;;;;7.05;3.83;;;8.70;83.90;;;;;;4979394;28;19918;-73
2021/10/17 10:22:15;;;;;;;6.15;3.70;;;8.70;84.00;;;;;;4964863;28;20049;-74
2021/10/17 10:24:43;;;;;;;8.13;4.00;;;8.80;84.80;;;;;;4983023;28;20134;-74
2021/10/17 10:27:09;;;;;;;7.47;4.00;;;8.90;84.30;;;;;;4981143;28;20057;-74
2021/10/17 10:29:35;;;;;;;7.85;4.35;;;9.00;85.10;;;;;;4963805;29;20046;-74
2021/10/17 10:32:02;;;;;;;8.80;4.38;;;9.10;84.70;;;;;;4963439;28;20074;-74
2021/10/17 10:34:37;;;;;;;6.90;4.10;;;9.20;83.10;;;;;;4978461;28;20019;-74
2021/10/17 10:37:19;;;;;;;15.20;6.22;;;9.20;83.60;;;;;;4963414;28;20090;-74
2021/10/17 10:40:09;;;;;;;7.65;4.53;;;9.40;83.30;;;;;;4963604;28;20366;-74
2021/10/17 10:42:55;;;;;;;8.93;3.63;;;9.20;82.20;;;;;;4963809;28;20058;-73
2021/10/17 10:45:34;;;;;;;11.50;3.63;;;9.30;83.20;;;;;;4947284;29;20038;-74
2021/10/17 10:48:06;;;;;;;8.48;3.95;;;9.40;83.30;;;;;;4979189;28;20074;-74
2021/10/17 10:50:37;;;;;;;8.68;4.50;;;9.50;82.90;;;;;;4964587;28;20030;-74
2021/10/17 10:53:03;;;;;;;9.88;4.13;;;9.70;82.70;;;;;;4962522;29;20086;-74
2021/10/17 10:55:47;;;;;;;11.63;4.20;;;9.80;83.70;;;;;;4972708;28;20041;-74
2021/10/17 10:58:32;;;;;;;5.95;4.10;;;9.90;82.50;;;;;;4960614;28;20027;-73
2021/10/17 11:00:58;;;;;;;7.85;3.80;;;9.80;81.90;;;;;;4964111;28;20098;-74
2021/10/17 11:03:26;;;;;;;11.33;4.27;;;10.00;81.70;;;;;;4979472;28;20046;-74
2021/10/17 11:06:09;;;;;;;5.93;3.72;;;10.10;81.20;;;;;;4979827;28;20318;-74
2021/10/17 11:08:40;;;;;;;7.95;4.50;;;10.20;81.40;;;;;;4964604;28;20090;-74
2021/10/17 11:11:06;;;;;;;6.65;4.25;;;10.30;82.70;;;;;;4963560;29;20058;-74
2021/10/17 11:13:42;;;;;;;10.70;4.88;;;10.70;81.10;;;;;;4946804;28;20023;-74
2021/10/17 11:16:19;;;;;;;9.00;4.68;;;11.80;79.50;;;;;;4979426;28;20038;-74
2021/10/17 11:18:45;;;;;;;7.30;3.83;;;13.30;75.10;;;;;;4963396;29;20259;-74
2021/10/17 11:21:11;;;;;;;5.93;4.10;;;14.90;68.10;;;;;;4979549;28;20023;-74
2021/10/17 11:23:39;;;;;;;5.23;3.93;;;15.80;64.30;;;;;;4962893;28;20031;-75
2021/10/17 11:26:12;;;;;;;7.43;4.45;;;15.50;61.40;;;;;;4978520;28;20238;-75
2021/10/17 11:28:39;;;;;;;8.13;4.93;;;15.30;62.70;;;;;;4980750;28;20348;-74
2021/10/17 11:31:14;;;;;;;7.88;4.82;;;15.00;63.80;;;;;;4989057;28;20033;-74
2021/10/17 11:33:43;;;;;;;7.97;5.05;;;14.60;64.90;;;;;;4981564;28;20038;-75
2021/10/17 11:36:14;;;;;;;9.57;5.45;;;14.00;66.80;;;;;;4982625;28;20026;-75
2021/10/17 11:38:40;;;;;;;7.60;4.53;;;13.70;67.90;;;;;;4981370;28;20038;-74
2021/10/17 11:41:15;;;;;;;7.78;4.45;;;13.50;69.10;;;;;;4982501;28;20026;-75
2021/10/17 11:43:45;;;;;;;10.27;5.60;;;13.60;69.00;;;;;;4981397;28;20035;-74
2021/10/17 11:46:19;;;;;;;10.85;5.60;;;13.40;69.50;;;;;;4982092;28;20025;-74
2021/10/17 11:48:45;;;;;;;12.63;5.55;;;13.40;69.90;;;;;;4967634;28;20131;-75
2021/10/17 11:51:14;;;;;;;11.50;5.95;;;13.50;70.10;;;;;;4982607;28;20023;-74
2021/10/17 11:53:41;;;;;;;10.35;5.45;;;13.60;70.00;;;;;;4965936;28;20073;-74
2021/10/17 11:56:11;;;;;;;8.98;5.35;;;13.60;70.30;;;;;;4982135;28;20355;-75
2021/10/17 11:58:39;;;;;;;10.90;5.55;;;13.50;70.30;;;;;;4974789;28;20038;-74
2021/10/17 12:01:12;;;;;;;10.23;5.35;;;13.60;70.10;;;;;;4949806;28;20023;-74
2021/10/17 12:03:42;;;;;;;11.38;6.18;;;13.50;69.50;;;;;;4965765;28;20027;-74
2021/10/17 12:06:16;;;;;;;11.48;5.70;;;13.10;70.40;;;;;;4966342;28;20069;-74
2021/10/17 12:08:53;;;;;;;8.55;5.88;;;13.00;71.40;;;;;;4982009;28;20050;-74
2021/10/17 12:11:19;;;;;;;8.55;6.13;;;13.10;71.70;;;;;;4967314;28;20526;-74
2021/10/17 12:13:47;;;;;;;10.55;6.88;;;13.20;71.40;;;;;;4949742;28;20053;-74
2021/10/17 12:16:31;;;;;;;13.27;6.72;;;13.20;71.60;;;;;;4966403;28;20325;-75
2021/10/17 12:18:59;;;;;;;10.95;7.18;;;13.20;72.00;;;;;;4981810;28;20094;-74
2021/10/17 12:21:47;;;;;;;12.43;6.53;;;13.30;71.60;;;;;;4966408;28;20015;-75
2021/10/17 12:24:13;;;;;;;7.70;5.28;;;13.30;71.80;;;;;;4981645;28;20037;-74
2021/10/17 12:26:54;;;;;;;10.50;6.17;;;13.30;72.30;;;;;;4983077;28;20042;-75
2021/10/17 12:29:20;;;;;;;11.40;6.35;;;13.10;73.20;;;;;;4981677;28;20341;-74
2021/10/17 12:31:57;;;;;;;10.13;5.70;;;13.00;73.70;;;;;;4982084;28;20241;-74
2021/10/17 12:34:41;;;;;;;12.80;6.50;;;13.10;73.90;;;;;;4965687;28;20031;-74
2021/10/17 12:37:08;;;;;;;12.45;6.68;;;13.30;74.80;;;;;;4982021;28;20019;-75
2021/10/17 12:39:34;;;;;;;;;;;13.60;73.30;;;;;;4981851;28;20042;-74
2021/10/17 12:42:03;;;;;;;9.18;6.07;;;13.70;72.50;;;;;;4982766;28;20146;-75
2021/10/17 12:44:29;;;;;;;11.18;6.72;;;13.80;73.00;;;;;;4965990;28;20037;-74
2021/10/17 12:47:04;;;;;;;10.60;6.63;;;14.10;71.80;;;;;;4981879;28;20337;-75
2021/10/17 12:49:41;;;;;;;11.35;6.82;;;15.50;67.20;;;;;;4981957;28;20026;-75
2021/10/17 12:52:08;;;;;;;11.63;6.55;;;15.80;65.20;;;;;;4981806;28;20022;-74
2021/10/17 12:54:35;;;;;;;11.73;7.07;;;16.10;64.10;;;;;;4981490;28;20064;-75
2021/10/17 12:57:06;;;;;;;10.15;6.85;;;15.70;63.80;;;;;;4981530;28;20022;-75